Time;durP1;ratioP1;P1;durP2;ratioP2;P2;SDS_P1;SDS_P2;PMS_P1;PMS_P2;Temp;Humidity;BMP_temperature;BMP_pressure;BME280_temperature;BME280_humidity;BME280_pressure;Samples;Min_cycle;Max_cycle;Signal;HPM_P1;HPM_P2
2023/11/17 00:01:41;;;;;;;1.80;0.90;;;;;;;-147.86;100.00;50035.34;105674;1254;61604;-45
2023/11/17 00:04:08;;;;;;;2.70;0.80;;;;;;;-147.86;100.00;50031.81;105641;1254;60437;-47
2023/11/17 00:06:35;;;;;;;1.00;0.60;;;;;;;-147.86;100.00;50030.24;105736;1254;73866;-45
2023/11/17 00:09:05;;;;;;;0.60;0.60;;;;;;;-147.86;100.00;50030.63;105633;1254;64257;-46
2023/11/17 00:11:34;;;;;;;1.30;0.60;;;;;;;-147.86;100.00;50033.38;105675;1254;72635;-44
2023/11/17 00:14:01;;;;;;;1.10;0.70;;;;;;;-147.86;100.00;50012.20;105645;1257;61674;-44
2023/11/17 00:16:28;;;;;;;1.10;0.80;;;;;;;-147.86;100.00;50024.74;105654;1254;60874;-45
2023/11/17 00:18:56;;;;;;;0.40;0.40;;;;;;;-147.86;100.00;50018.47;105636;1256;73832;-46
2023/11/17 00:21:22;;;;;;;1.40;0.70;;;;;;;-147.86;100.00;50003.96;105682;1257;65505;-47
2023/11/17 00:23:49;;;;;;;0.70;0.50;;;;;;;-147.86;100.00;50002.78;105635;1257;72517;-46
2023/11/17 00:26:17;;;;;;;2.00;0.40;;;;;;;-147.86;100.00;49993.76;105545;1257;61797;-49
2023/11/17 00:28:45;;;;;;;0.60;0.60;;;;;;;-147.86;100.00;49998.07;105634;1253;60422;-47
2023/11/17 00:31:13;;;;;;;0.60;0.60;;;;;;;-147.86;100.00;49980.42;105545;1256;74797;-46
2023/11/17 00:33:41;;;;;;;0.60;0.30;;;;;;;-147.86;100.00;49970.62;105514;1257;65535;-45
2023/11/17 00:36:09;;;;;;;1.60;0.50;;;;;;;-147.86;100.00;49952.96;105572;1254;72655;-48
2023/11/17 00:38:36;;;;;;;0.20;0.20;;;;;;;-147.86;100.00;49928.25;105653;1257;61150;-48
2023/11/17 00:41:04;;;;;;;0.90;0.50;;;;;;;-147.86;100.00;49934.92;105619;1254;60442;-50
2023/11/17 00:43:44;;;;;;;0.50;0.50;;;;;;;-147.86;100.00;49945.91;105621;1254;75000;-44
2023/11/17 00:46:13;;;;;;;2.10;0.50;;;;;;;-147.86;100.00;49949.44;105658;1257;65431;-50
2023/11/17 00:48:40;;;;;;;0.60;0.60;;;;;;;-147.86;100.00;49954.93;105638;1254;72729;-50
2023/11/17 00:51:08;;;;;;;0.30;0.30;;;;;;;-147.86;100.00;49971.79;105909;1256;61996;-45
2023/11/17 00:53:35;;;;;;;0.60;0.60;;;;;;;-147.86;100.00;49994.54;105865;1253;60431;-43
2023/11/17 00:56:04;;;;;;;0.90;0.60;;;;;;;-147.86;100.00;50015.73;105846;1253;73960;-44
2023/11/17 00:58:31;;;;;;;0.70;0.70;;;;;;;-147.86;100.00;50021.61;105886;1253;64357;-44
2023/11/17 01:00:58;;;;;;;0.80;0.80;;;;;;;-147.86;100.00;50050.24;105831;1254;72168;-46
2023/11/17 01:03:26;;;;;;;1.10;1.10;;;;;;;-147.86;100.00;50076.52;105821;1256;61878;-43
2023/11/17 01:05:53;;;;;;;1.20;1.10;;;;;;;-147.86;100.00;50120.85;105640;1253;60525;-44
2023/11/17 01:08:20;;;;;;;1.10;0.80;;;;;;;-147.86;100.00;50138.50;105831;1257;72856;-45
2023/11/17 01:10:48;;;;;;;0.90;0.80;;;;;;;-147.86;100.00;50153.41;105811;1257;65384;-46
2023/11/17 01:13:15;;;;;;;1.50;1.40;;;;;;;-147.86;100.00;50185.57;105873;1253;71488;-44
2023/11/17 01:15:42;;;;;;;3.10;1.30;;;;;;;-147.86;100.00;50205.18;105805;1257;60346;-46
2023/11/17 01:18:10;;;;;;;1.20;1.10;;;;;;;-147.86;100.00;50228.33;105630;1253;60622;-44
2023/11/17 01:20:40;;;;;;;1.60;1.50;;;;;;;-147.86;100.00;50222.05;105884;1254;73901;-44
2023/11/17 01:23:08;;;;;;;1.60;1.20;;;;;;;-147.86;100.00;50256.18;105930;1256;65415;-44
2023/11/17 01:25:35;;;;;;;1.20;1.20;;;;;;;-147.86;100.00;50242.05;105816;1253;72589;-47
2023/11/17 01:28:02;;;;;;;1.60;1.30;;;;;;;-147.86;100.00;50277.37;105872;1257;61216;-45
2023/11/17 01:30:31;;;;;;;1.70;1.60;;;;;;;-147.86;100.00;50276.58;105905;1257;60390;-47
2023/11/17 01:32:57;;;;;;;1.30;1.10;;;;;;;-147.86;100.00;50274.62;105701;1254;73920;-46
2023/11/17 01:35:25;;;;;;;1.80;1.60;;;;;;;-147.86;100.00;50287.17;105843;1252;65391;-47
2023/11/17 01:37:52;;;;;;;1.80;1.70;;;;;;;-147.86;100.00;50308.36;105903;1253;72523;-44
2023/11/17 01:40:19;;;;;;;2.40;2.20;;;;;;;-147.86;100.00;50309.53;105848;1253;62008;-45
2023/11/17 01:42:47;;;;;;;2.10;1.80;;;;;;;-147.86;100.00;50320.13;105867;1253;60464;-46
2023/11/17 01:45:14;;;;;;;1.80;1.70;;;;;;;-147.86;100.00;50310.71;105893;1253;73758;-43
2023/11/17 01:47:42;;;;;;;1.90;1.80;;;;;;;-147.86;100.00;50333.46;105698;1253;65509;-43
2023/11/17 01:50:11;;;;;;;2.10;1.80;;;;;;;-147.86;100.00;50314.63;105855;1253;72654;-45
2023/11/17 01:52:40;;;;;;;2.30;2.10;;;;;;;-147.86;100.00;50305.61;105654;1257;61726;-43
2023/11/17 01:55:08;;;;;;;1.80;1.70;;;;;;;-147.86;100.00;50330.32;105919;1252;60414;-44
2023/11/17 01:57:37;;;;;;;2.30;2.00;;;;;;;-147.86;100.00;50316.20;105687;1254;73747;-45
2023/11/17 02:00:13;;;;;;;2.00;1.90;;;;;;;-147.86;100.00;50343.27;105672;1257;64055;-45
2023/11/17 02:02:50;;;;;;;1.80;1.70;;;;;;;-147.86;100.00;50328.76;105675;1258;72453;-44
2023/11/17 02:05:22;;;;;;;2.40;2.10;;;;;;;-147.86;100.00;50337.39;105897;1253;60841;-41
2023/11/17 02:08:07;;;;;;;1.90;1.80;;;;;;;-147.86;100.00;50317.38;105904;1253;60423;-46
2023/11/17 02:10:45;;;;;;;2.00;1.90;;;;;;;-147.86;100.00;50330.32;105656;1257;73870;-45
2023/11/17 02:13:31;;;;;;;2.10;2.00;;;;;;;-147.86;100.00;50326.79;105674;1253;65427;-48
2023/11/17 02:16:01;;;;;;;3.40;2.00;;;;;;;-147.86;100.00;50324.05;105699;1253;72574;-46
2023/11/17 02:18:32;;;;;;;2.30;2.20;;;;;;;-147.86;100.00;50316.99;105688;1257;61781;-44
2023/11/17 02:20:59;;;;;;;2.80;1.90;;;;;;;-147.86;100.00;50320.13;105689;1253;60451;-49
2023/11/17 02:25:10;;;;;;;2.40;2.20;;;;;;;-147.86;100.00;50120.89;102485;1292;615862;-44
2023/11/17 02:27:41;;;;;;;2.40;2.10;;;;;;;-147.86;100.00;50357.39;104848;1270;61912;-43
2023/11/17 02:30:09;;;;;;;2.40;2.30;;;;;;;-147.86;100.00;50337.77;105065;1267;60108;-45
2023/11/17 02:32:38;;;;;;;2.60;2.50;;;;;;;-147.86;100.00;50328.36;104831;1272;72222;-46
2023/11/17 02:35:08;;;;;;;2.70;2.50;;;;;;;-147.86;100.00;50318.16;104896;1271;65271;-46
2023/11/17 02:37:35;;;;;;;2.60;2.40;;;;;;;-147.86;100.00;50307.57;104741;1263;274283;-44
2023/11/17 02:40:18;;;;;;;3.10;2.80;;;;;;;-147.86;100.00;50287.57;105047;1264;60955;-45
2023/11/17 02:42:48;;;;;;;2.40;2.20;;;;;;;-147.86;100.00;50298.94;105110;1263;60093;-45
2023/11/17 02:45:19;;;;;;;2.60;2.40;;;;;;;-147.86;100.00;50278.93;105189;1263;72268;-44
2023/11/17 02:47:48;;;;;;;2.40;2.30;;;;;;;-147.86;100.00;50288.74;105192;1263;65400;-47
2023/11/17 02:50:19;;;;;;;2.30;2.10;;;;;;;-147.86;100.00;50282.46;105189;1264;71577;-46
2023/11/17 02:53:06;;;;;;;2.90;2.70;;;;;;;-147.86;100.00;50271.88;105163;1263;60873;-44
2023/11/17 02:55:35;;;;;;;2.90;2.70;;;;;;;-147.86;100.00;50289.13;105238;1263;60354;-42
2023/11/17 02:58:02;;;;;;;3.30;2.90;;;;;;;-147.86;100.00;50270.70;105118;1269;72885;-46
2023/11/17 03:00:30;;;;;;;2.70;2.50;;;;;;;-147.86;100.00;50300.51;105183;1266;65506;-44
2023/11/17 03:02:57;;;;;;;2.80;2.60;;;;;;;-147.86;100.00;50298.16;105208;1263;71503;-48
2023/11/17 03:05:26;;;;;;;3.00;2.70;;;;;;;-147.86;100.00;50304.04;105112;1264;61118;-46
2023/11/17 03:07:53;;;;;;;2.20;2.00;;;;;;;-147.86;100.00;50300.51;105214;1263;60307;-45
2023/11/17 03:10:22;;;;;;;3.30;2.20;;;;;;;-147.86;100.00;50290.31;105087;1265;71788;-43
2023/11/17 03:12:55;;;;;;;2.30;2.20;;;;;;;-147.86;100.00;50298.16;105230;1266;65355;-47
2023/11/17 03:15:22;;;;;;;2.60;2.40;;;;;;;-147.86;100.00;50295.80;105202;1263;72669;-47
2023/11/17 03:17:51;;;;;;;2.70;2.50;;;;;;;-147.86;100.00;50296.59;105158;1266;62321;-45
2023/11/17 03:20:19;;;;;;;3.30;3.10;;;;;;;-147.86;100.00;50296.59;105195;1264;60475;-46
2023/11/17 03:22:46;;;;;;;2.80;2.70;;;;;;;-147.86;100.00;50296.59;105198;1269;73005;-42
2023/11/17 03:25:17;;;;;;;3.40;3.10;;;;;;;-147.86;100.00;50291.49;104929;1269;65549;-44
2023/11/17 03:27:48;;;;;;;2.70;2.50;;;;;;;-147.86;100.00;50290.71;105130;1267;72622;-46
2023/11/17 03:30:17;;;;;;;2.60;2.40;;;;;;;-147.86;100.00;50294.23;104888;1272;61988;-46
2023/11/17 03:32:48;;;;;;;2.70;2.50;;;;;;;-147.86;100.00;50288.74;104977;1267;60207;-44
2023/11/17 03:35:20;;;;;;;2.50;2.30;;;;;;;-147.86;100.00;50278.94;104792;1267;71854;-43
2023/11/17 03:37:47;;;;;;;2.40;2.20;;;;;;;-147.86;100.00;50289.52;104905;1266;65350;-47
2023/11/17 03:40:17;;;;;;;3.20;2.90;;;;;;;-147.86;100.00;50274.62;104832;1269;71228;-47
2023/11/17 03:42:46;;;;;;;2.70;2.50;;;;;;;-147.86;100.00;50273.05;104813;1272;61812;-47
2023/11/17 03:45:15;;;;;;;4.00;3.70;;;;;;;-147.86;100.00;50260.11;104934;1269;60358;-43
2023/11/17 03:47:45;;;;;;;2.90;2.70;;;;;;;-147.86;100.00;50275.80;104893;1266;72905;-43
2023/11/17 03:50:15;;;;;;;4.40;3.90;;;;;;;-147.86;100.00;50258.93;104955;1266;63599;-45
2023/11/17 03:52:42;;;;;;;3.70;3.30;;;;;;;-147.86;100.00;50279.33;105468;1260;72685;-46
2023/11/17 03:55:11;;;;;;;4.30;3.90;;;;;;;-147.86;100.00;50262.85;105455;1262;62020;-45
2023/11/17 03:57:38;;;;;;;4.20;3.80;;;;;;;-147.86;100.00;50254.22;105469;1260;60277;-43
2023/11/17 04:00:07;;;;;;;4.20;3.90;;;;;;;-147.86;100.00;50271.48;105489;1261;74244;-42
2023/11/17 04:02:40;;;;;;;4.50;4.00;;;;;;;-147.86;100.00;50277.37;105443;1262;65460;-44
2023/11/17 04:05:13;;;;;;;3.80;3.50;;;;;;;-147.86;100.00;50264.81;105492;1260;72518;-44
2023/11/17 04:07:40;;;;;;;4.50;3.70;;;;;;;-147.86;100.00;50270.70;105508;1262;61892;-44
2023/11/17 04:10:08;;;;;;;4.90;3.80;;;;;;;-147.86;100.00;50301.29;105495;1262;59581;-44
2023/11/17 04:12:35;;;;;;;3.90;3.60;;;;;;;-147.86;100.00;50300.90;105518;1258;71843;-46
2023/11/17 04:15:03;;;;;;;4.80;4.30;;;;;;;-147.86;100.00;50289.13;105474;1262;65521;-46
2023/11/17 04:17:35;;;;;;;5.20;3.90;;;;;;;-147.86;100.00;50297.37;105492;1262;71417;-48
2023/11/17 04:20:05;;;;;;;7.10;3.30;;;;;;;-147.86;100.00;50312.67;105436;1260;60310;-48
2023/11/17 04:22:32;;;;;;;4.20;3.90;;;;;;;-147.86;100.00;50307.18;105207;1262;61452;-45
2023/11/17 04:24:58;;;;;;;6.30;3.50;;;;;;;-147.86;100.00;50301.30;105071;1265;72738;-45
2023/11/17 04:27:26;;;;;;;4.20;3.90;;;;;;;-147.86;100.00;50304.04;105425;1262;65455;-48
2023/11/17 04:29:53;;;;;;;4.30;3.70;;;;;;;-147.86;100.00;50300.90;105450;1258;72723;-46
2023/11/17 04:32:20;;;;;;;3.40;3.10;;;;;;;-147.86;100.00;50320.13;105444;1262;60829;-46
2023/11/17 04:34:49;;;;;;;4.10;3.80;;;;;;;-147.86;100.00;50306.39;105468;1260;60287;-44
2023/11/17 04:37:16;;;;;;;3.30;3.10;;;;;;;-147.86;100.00;50329.54;105461;1258;73112;-44
2023/11/17 04:39:43;;;;;;;3.30;3.00;;;;;;;-147.86;100.00;50321.30;105493;1262;65716;-45
2023/11/17 04:42:09;;;;;;;3.80;3.50;;;;;;;-147.86;100.00;50317.77;105437;1260;71547;-45
2023/11/17 04:44:36;;;;;;;3.40;3.20;;;;;;;-147.86;100.00;50291.88;105524;1262;61210;-43
2023/11/17 04:47:04;;;;;;;5.30;3.70;;;;;;;-147.86;100.00;50298.16;105566;1257;60181;-46
2023/11/17 04:49:31;;;;;;;3.80;3.30;;;;;;;-147.86;100.00;50313.85;105567;1258;73022;-44
2023/11/17 04:51:59;;;;;;;3.50;3.20;;;;;;;-147.86;100.00;50307.18;105534;1260;64670;-45
2023/11/17 04:54:26;;;;;;;3.60;3.30;;;;;;;-147.86;100.00;50301.68;105586;1262;71626;-46
2023/11/17 04:56:55;;;;;;;4.20;3.80;;;;;;;-147.86;100.00;50303.26;105568;1262;60143;-47
2023/11/17 04:59:22;;;;;;;3.80;3.50;;;;;;;-147.86;100.00;50306.00;105529;1257;60245;-46
2023/11/17 05:01:49;;;;;;;4.00;3.70;;;;;;;-147.86;100.00;50300.90;105600;1258;73076;-43
2023/11/17 05:04:17;;;;;;;3.30;3.00;;;;;;;-147.86;100.00;50284.43;105592;1262;65487;-46
2023/11/17 05:06:44;;;;;;;3.80;3.50;;;;;;;-147.86;100.00;50288.74;105533;1260;72696;-43
2023/11/17 05:09:12;;;;;;;4.00;3.70;;;;;;;-147.86;100.00;50285.21;105614;1261;60211;-44
2023/11/17 05:11:40;;;;;;;5.30;4.20;;;;;;;-147.86;100.00;50282.46;105544;1257;59740;-45
2023/11/17 05:14:07;;;;;;;5.70;4.40;;;;;;;-147.86;100.00;50300.51;105539;1263;72791;-43
2023/11/17 05:16:35;;;;;;;7.00;4.00;;;;;;;-147.86;100.00;50296.20;105585;1261;65477;-45
2023/11/17 05:19:05;;;;;;;3.50;3.30;;;;;;;-147.86;100.00;50283.64;105660;1262;72659;-45
2023/11/17 05:21:32;;;;;;;4.00;3.40;;;;;;;-147.86;100.00;50284.82;105557;1262;62118;-47
2023/11/17 05:24:00;;;;;;;5.50;3.90;;;;;;;-147.86;100.00;50281.29;105621;1260;60123;-46
2023/11/17 05:26:27;;;;;;;4.30;3.90;;;;;;;-147.86;100.00;50290.31;105621;1257;72877;-45
2023/11/17 05:28:54;;;;;;;4.30;3.90;;;;;;;-147.86;100.00;50283.25;105593;1263;65678;-46
2023/11/17 05:31:21;;;;;;;4.40;3.60;;;;;;;-147.86;100.00;50298.16;105597;1263;71433;-46
2023/11/17 05:33:48;;;;;;;4.40;4.00;;;;;;;-147.86;100.00;50272.66;105852;1259;61848;-45
2023/11/17 05:36:16;;;;;;;4.60;4.10;;;;;;;-147.86;100.00;50296.20;105818;1254;60164;-44
2023/11/17 05:38:43;;;;;;;4.50;3.80;;;;;;;-147.86;100.00;50268.74;105895;1257;73119;-43
2023/11/17 05:41:11;;;;;;;3.60;3.30;;;;;;;-147.86;100.00;50268.74;105890;1257;65461;-44
2023/11/17 05:43:37;;;;;;;5.20;3.80;;;;;;;-147.86;100.00;50265.60;105838;1254;72634;-43
2023/11/17 05:46:05;;;;;;;4.30;3.60;;;;;;;-147.86;100.00;50268.74;105893;1259;61940;-44
2023/11/17 05:48:32;;;;;;;4.80;4.00;;;;;;;-147.86;100.00;50250.70;105898;1254;60300;-45
2023/11/17 05:50:59;;;;;;;4.90;4.40;;;;;;;-147.86;100.00;50242.06;105836;1257;72912;-46
2023/11/17 05:53:26;;;;;;;3.70;3.20;;;;;;;-147.86;100.00;50256.57;105895;1259;65666;-47
2023/11/17 05:55:53;;;;;;;4.20;3.80;;;;;;;-147.86;100.00;50224.80;105885;1257;72677;-44
2023/11/17 05:58:19;;;;;;;4.20;3.80;;;;;;;-147.86;100.00;50203.23;105837;1258;61997;-44
2023/11/17 06:00:46;;;;;;;3.80;3.50;;;;;;;-147.86;100.00;50203.23;105865;1254;60098;-44
2023/11/17 06:03:13;;;;;;;3.90;3.50;;;;;;;-147.86;100.00;50188.32;105857;1257;72926;-45
2023/11/17 06:05:40;;;;;;;4.30;3.90;;;;;;;-147.86;100.00;50153.41;105865;1257;65480;-47
2023/11/17 06:08:07;;;;;;;4.40;3.90;;;;;;;-147.86;100.00;50146.74;105946;1257;72624;-43
2023/11/17 06:10:34;;;;;;;4.50;3.70;;;;;;;-147.86;100.00;50128.30;105867;1260;61190;-47
2023/11/17 06:13:01;;;;;;;9.30;3.60;;;;;;;-147.86;100.00;50120.46;105873;1258;60280;-46
2023/11/17 06:15:31;;;;;;;4.00;3.70;;;;;;;-147.86;100.00;50100.45;105857;1254;73074;-46
2023/11/17 06:17:58;;;;;;;4.50;4.10;;;;;;;-147.86;100.00;50091.82;105825;1259;65216;-47
2023/11/17 06:20:28;;;;;;;5.00;4.00;;;;;;;-147.86;100.00;50062.80;105859;1254;72703;-43
2023/11/17 06:22:54;;;;;;;3.90;3.60;;;;;;;-147.86;100.00;50063.19;106012;1257;61466;-45
2023/11/17 06:25:21;;;;;;;4.10;3.70;;;;;;;-147.86;100.00;50034.95;105862;1259;60022;-45
2023/11/17 06:27:49;;;;;;;4.10;3.50;;;;;;;-147.86;100.00;50031.42;105881;1257;73016;-44
2023/11/17 06:30:16;;;;;;;5.20;4.50;;;;;;;-147.86;100.00;49993.76;105904;1256;65378;-44
2023/11/17 06:32:43;;;;;;;4.60;4.20;;;;;;;-147.86;100.00;49987.09;105843;1253;72491;-45
2023/11/17 06:35:11;;;;;;;4.80;4.40;;;;;;;-147.86;100.00;49962.77;105884;1259;60451;-45
2023/11/17 06:37:38;;;;;;;5.90;3.90;;;;;;;-147.86;100.00;49981.99;105878;1259;60467;-47
2023/11/17 06:40:10;;;;;;;3.80;3.50;;;;;;;-147.86;100.00;49945.91;105829;1254;73790;-46
2023/11/17 06:42:39;;;;;;;4.30;3.80;;;;;;;-147.86;100.00;49963.16;105886;1257;65597;-44
2023/11/17 06:45:07;;;;;;;7.40;4.40;;;;;;;-147.86;100.00;49955.32;105884;1258;72678;-46
2023/11/17 06:47:35;;;;;;;4.50;4.00;;;;;;;-147.86;100.00;49929.43;105877;1256;60467;-43
2023/11/17 06:50:04;;;;;;;3.90;3.60;;;;;;;-147.86;100.00;49920.80;105782;1254;60540;-44
2023/11/17 06:52:31;;;;;;;5.80;4.60;;;;;;;-147.86;100.00;49889.42;105853;1257;73689;-45
2023/11/17 06:54:58;;;;;;;9.00;4.60;;;;;;;-147.86;100.00;49874.52;105859;1257;65965;-45
2023/11/17 06:57:27;;;;;;;4.50;4.10;;;;;;;-147.86;100.00;49860.79;105820;1259;71618;-43
2023/11/17 06:59:54;;;;;;;5.20;4.60;;;;;;;-147.86;100.00;49857.65;105876;1254;61126;-44
2023/11/17 07:02:22;;;;;;;9.90;4.20;;;;;;;-147.86;100.00;49840.78;105885;1256;60485;-46
2023/11/17 07:04:49;;;;;;;5.10;4.50;;;;;;;-147.86;100.00;49827.45;105844;1254;73831;-45
2023/11/17 07:07:16;;;;;;;5.20;4.50;;;;;;;-147.86;100.00;49806.27;105896;1260;65547;-44
2023/11/17 07:09:43;;;;;;;6.30;4.30;;;;;;;-147.86;100.00;49810.58;105902;1259;72665;-43
2023/11/17 07:12:10;;;;;;;5.00;4.20;;;;;;;-147.86;100.00;49800.38;105799;1257;61128;-43
2023/11/17 07:14:37;;;;;;;4.50;4.10;;;;;;;-147.86;100.00;49774.50;105863;1255;60431;-45
2023/11/17 07:17:05;;;;;;;4.70;4.10;;;;;;;-147.86;100.00;49763.13;105863;1255;73787;-46
2023/11/17 07:19:35;;;;;;;4.70;4.30;;;;;;;-147.86;100.00;49743.91;105853;1260;65233;-45
2023/11/17 07:22:02;;;;;;;4.20;3.80;;;;;;;-147.86;100.00;49757.63;105875;1257;71194;-44
2023/11/17 07:24:29;;;;;;;4.20;3.80;;;;;;;-147.86;100.00;49737.63;105699;1255;61944;-45
2023/11/17 07:26:57;;;;;;;6.80;3.90;;;;;;;-147.86;100.00;49728.21;105847;1258;60405;-44
2023/11/17 07:29:28;;;;;;;5.60;4.30;;;;;;;-147.86;100.00;49714.09;105800;1259;73832;-46
2023/11/17 07:31:56;;;;;;;4.80;4.20;;;;;;;-147.86;100.00;49710.17;105896;1257;64559;-46
2023/11/17 07:34:24;;;;;;;3.60;3.30;;;;;;;-147.86;100.00;49701.93;105790;1259;71608;-46
2023/11/17 07:36:51;;;;;;;4.00;3.30;;;;;;;-147.86;100.00;49655.65;105844;1257;60357;-43
2023/11/17 07:39:23;;;;;;;6.70;3.70;;;;;;;-147.86;100.00;49676.05;105827;1254;60453;-46
2023/11/17 07:41:50;;;;;;;16.90;4.00;;;;;;;-147.86;100.00;49629.38;105861;1260;73926;-46
2023/11/17 07:44:21;;;;;;;4.40;4.00;;;;;;;-147.86;100.00;49594.86;105810;1258;66028;-43
2023/11/17 07:46:48;;;;;;;4.70;4.10;;;;;;;-147.86;100.00;49574.86;105870;1257;72577;-44
2023/11/17 07:49:17;;;;;;;3.70;3.30;;;;;;;-147.86;100.00;49545.83;105833;1258;60589;-44
2023/11/17 07:51:48;;;;;;;7.50;3.80;;;;;;;-147.86;100.00;49508.18;105867;1253;60322;-43
2023/11/17 07:54:16;;;;;;;5.30;4.40;;;;;;;-147.86;100.00;49496.81;105913;1257;73713;-43
2023/11/17 07:56:43;;;;;;;10.00;6.30;;;;;;;-147.86;100.00;49451.71;105869;1259;65312;-44
2023/11/17 07:59:12;;;;;;;6.50;5.00;;;;;;;-147.86;100.00;49442.68;105821;1257;72418;-47
2023/11/17 08:01:39;;;;;;;15.90;6.20;;;;;;;-147.86;100.00;49414.45;105873;1257;61823;-45
2023/11/17 08:04:08;;;;;;;7.40;5.60;;;;;;;-147.86;100.00;49445.04;105868;1264;60427;-43
2023/11/17 08:06:36;;;;;;;7.80;5.40;;;;;;;-147.86;100.00;49432.49;105835;1257;73890;-46
2023/11/17 08:09:04;;;;;;;8.80;4.60;;;;;;;-147.86;100.00;49442.29;105868;1259;65500;-44
2023/11/17 08:11:32;;;;;;;5.20;4.60;;;;;;;-147.86;100.00;49437.20;105869;1257;71668;-47
2023/11/17 08:13:58;;;;;;;5.10;4.40;;;;;;;-147.86;100.00;49429.74;105835;1259;61644;-42
2023/11/17 08:16:26;;;;;;;5.50;5.00;;;;;;;-147.86;100.00;49423.07;105882;1256;60479;-47
2023/11/17 08:18:53;;;;;;;8.20;5.00;;;;;;;-147.86;100.00;49408.56;105853;1255;73754;-47
2023/11/17 08:21:20;;;;;;;5.30;4.80;;;;;;;-147.86;100.00;49381.89;105853;1257;65519;-46
2023/11/17 08:23:48;;;;;;;6.10;5.30;;;;;;;-147.86;100.00;49346.60;105838;1257;73133;-45
2023/11/17 08:26:15;;;;;;;6.30;5.00;;;;;;;-147.86;100.00;49318.36;105833;1254;60411;-42
2023/11/17 08:28:43;;;;;;;9.60;5.90;;;;;;;-147.86;100.00;49297.18;105845;1255;60902;-44
2023/11/17 08:31:14;;;;;;;4.70;4.10;;;;;;;-147.86;100.00;49279.93;105864;1257;72800;-47
2023/11/17 08:33:42;;;;;;;4.60;4.20;;;;;;;-147.86;100.00;49275.22;105917;1257;64553;-43
2023/11/17 08:36:10;;;;;;;11.50;4.60;;;;;;;-147.86;100.00;49236.79;105861;1260;72497;-48
2023/11/17 08:38:41;;;;;;;6.70;4.40;;;;;;;-147.86;100.00;49204.63;105860;1258;60373;-46
2023/11/17 08:41:10;;;;;;;3.80;3.50;;;;;;;-147.86;100.00;49169.73;105855;1257;60489;-44
2023/11/17 08:43:38;;;;;;;3.90;3.60;;;;;;;-147.86;100.00;49145.02;105829;1257;73841;-45
2023/11/17 08:46:09;;;;;;;3.90;3.40;;;;;;;-147.86;100.00;49079.14;105778;1266;64030;-46
2023/11/17 08:48:36;;;;;;;4.40;3.40;;;;;;;-147.86;100.00;49050.51;105873;1256;71576;-47
2023/11/17 08:51:03;;;;;;;3.30;3.00;;;;;;;-147.86;100.00;49004.23;105855;1257;60524;-46
2023/11/17 08:53:30;;;;;;;3.90;3.30;;;;;;;-147.86;100.00;49002.66;105575;1258;60536;-44
2023/11/17 08:56:00;;;;;;;4.90;3.00;;;;;;;-147.86;100.00;48983.05;105629;1255;73776;-44
2023/11/17 08:58:28;;;;;;;4.10;2.80;;;;;;;-147.86;100.00;48971.29;105876;1257;65463;-47
2023/11/17 09:00:57;;;;;;;6.50;3.80;;;;;;;-147.86;100.00;48952.86;105863;1259;71376;-47
2023/11/17 09:03:24;;;;;;;4.40;3.90;;;;;;;-147.86;100.00;48954.82;105830;1257;60404;-48
2023/11/17 09:05:51;;;;;;;6.40;4.40;;;;;;;-147.86;100.00;48921.10;105865;1255;60451;-49
2023/11/17 09:08:18;;;;;;;7.80;4.10;;;;;;;-147.86;100.00;48922.27;105848;1254;73873;-47
2023/11/17 09:10:46;;;;;;;9.00;5.40;;;;;;;-147.86;100.00;48914.43;105713;1257;64392;-48
2023/11/17 09:13:14;;;;;;;5.90;5.10;;;;;;;-147.86;100.00;48896.39;105701;1255;72634;-46
2023/11/17 09:15:40;;;;;;;9.60;5.70;;;;;;;-147.86;100.00;48900.71;105870;1253;60431;-48
2023/11/17 09:18:07;;;;;;;11.10;5.70;;;;;;;-147.86;100.00;48930.12;105829;1254;60532;-46
2023/11/17 09:20:36;;;;;;;8.90;4.90;;;;;;;-147.86;100.00;48932.07;105889;1257;73680;-47
2023/11/17 09:23:03;;;;;;;8.80;5.40;;;;;;;-147.86;100.00;48935.61;105887;1257;65300;-45
2023/11/17 09:25:30;;;;;;;7.60;5.50;;;;;;;-147.86;100.00;48922.67;105941;1257;72619;-45
2023/11/17 09:28:02;;;;;;;8.00;5.70;;;;;;;-147.86;100.00;48945.80;105864;1259;60431;-45
2023/11/17 09:30:33;;;;;;;7.60;5.70;;;;;;;-147.86;100.00;48963.84;105925;1254;60443;-44
2023/11/17 09:33:02;;;;;;;5.10;4.60;;;;;;;-147.86;100.00;48972.47;105891;1257;73683;-45
2023/11/17 09:35:32;;;;;;;6.80;5.10;;;;;;;-147.86;100.00;48969.73;105837;1257;63646;-44
2023/11/17 09:38:04;;;;;;;5.90;5.20;;;;;;;-147.86;100.00;48978.35;105887;1254;72665;-47
2023/11/17 09:40:36;;;;;;;9.10;5.00;;;;;;;-147.86;100.00;48982.27;105846;1257;60590;-43
2023/11/17 09:43:31;;;;;;;8.60;5.50;;;;;;;-147.86;100.00;48950.51;105812;1254;60453;-44
2023/11/17 09:45:59;;;;;;;5.80;5.10;;;;;;;-147.86;100.00;48931.69;105856;1259;74857;-43
2023/11/17 09:48:27;;;;;;;8.30;5.90;;;;;;;-147.86;100.00;48945.41;105729;1259;65571;-42
2023/11/17 09:50:56;;;;;;;8.40;6.00;;;;;;;-147.86;100.00;48932.87;105841;1254;72900;-45
2023/11/17 09:53:23;;;;;;;9.20;5.90;;;;;;;-147.86;100.00;48948.16;105841;1257;60890;-45
2023/11/17 09:55:51;;;;;;;7.70;6.00;;;;;;;-147.86;100.00;48933.26;105896;1253;60470;-47
2023/11/17 09:58:18;;;;;;;6.20;5.20;;;;;;;-147.86;100.00;48929.33;105834;1257;73716;-44
2023/11/17 10:00:46;;;;;;;8.70;6.10;;;;;;;-147.86;100.00;48935.61;105861;1257;65479;-44
2023/11/17 10:03:14;;;;;;;7.80;6.00;;;;;;;-147.86;100.00;48950.12;105731;1262;72398;-44
2023/11/17 10:05:41;;;;;;;11.00;6.30;;;;;;;-147.86;100.00;48933.65;105820;1257;61970;-44
2023/11/17 10:08:16;;;;;;;7.60;5.80;;;;;;;-147.86;100.00;48938.35;105854;1257;60770;-43
2023/11/17 10:10:47;;;;;;;9.30;6.10;;;;;;;-147.86;100.00;48941.49;105881;1256;73807;-46
2023/11/17 10:13:17;;;;;;;8.10;5.90;;;;;;;-147.86;100.00;48938.36;105872;1257;64062;-44
2023/11/17 10:15:45;;;;;;;5.70;5.10;;;;;;;-147.86;100.00;48934.43;105853;1254;72436;-43
2023/11/17 10:18:26;;;;;;;7.70;5.50;;;;;;;-147.86;100.00;48943.45;105842;1258;61025;-42
2023/11/17 10:20:53;;;;;;;6.30;5.10;;;;;;;-147.86;100.00;48939.93;105859;1254;60879;-47
2023/11/17 10:23:21;;;;;;;9.60;5.60;;;;;;;-147.86;100.00;48951.69;105895;1254;72326;-44
2023/11/17 10:25:54;;;;;;;8.70;5.50;;;;;;;-147.86;100.00;48965.02;105867;1257;64634;-43
2023/11/17 10:28:27;;;;;;;9.60;6.00;;;;;;;-147.86;100.00;48960.71;105864;1254;72753;-43
2023/11/17 10:30:59;;;;;;;9.90;6.40;;;;;;;-147.86;100.00;48987.77;105852;1254;61667;-43
2023/11/17 10:33:33;;;;;;;7.50;5.70;;;;;;;-147.86;100.00;49000.70;105850;1254;60429;-46
2023/11/17 10:36:00;;;;;;;6.60;5.20;;;;;;;-147.86;100.00;49006.20;105871;1254;73864;-46
2023/11/17 10:38:29;;;;;;;10.10;5.80;;;;;;;-147.86;100.00;49004.23;105859;1257;65477;-43
2023/11/17 10:41:33;;;;;;;7.20;6.00;;;;;;;-147.86;100.00;49019.53;105853;1254;73367;-45
2023/11/17 10:44:01;;;;;;;9.90;5.90;;;;;;;-147.86;100.00;49028.55;105832;1258;62034;-44
2023/11/17 10:46:31;;;;;;;6.30;5.00;;;;;;;-147.86;100.00;49010.12;105906;1253;60306;-44
2023/11/17 10:49:01;;;;;;;6.50;5.10;;;;;;;-147.86;100.00;49016.39;105881;1257;73865;-47
2023/11/17 10:51:28;;;;;;;9.10;5.70;;;;;;;-147.86;100.00;48996.39;105876;1257;65453;-47
2023/11/17 10:54:11;;;;;;;4.90;4.30;;;;;;;-147.86;100.00;48986.98;105852;1258;72649;-44
2023/11/17 10:56:40;;;;;;;4.80;4.30;;;;;;;-147.86;100.00;48924.63;105875;1257;60758;-44
2023/11/17 10:59:09;;;;;;;5.20;4.00;;;;;;;-147.86;100.00;48876.00;105934;1253;60549;-44
2023/11/17 11:01:36;;;;;;;5.40;3.90;;;;;;;-147.86;100.00;48799.14;105898;1258;73856;-46
2023/11/17 11:04:25;;;;;;;4.40;4.00;;;;;;;-147.86;100.00;48778.36;105930;1257;65108;-44
2023/11/17 11:06:56;;;;;;;3.80;3.50;;;;;;;-147.86;100.00;48702.68;105866;1254;72650;-46
2023/11/17 11:09:30;;;;;;;3.70;2.90;;;;;;;-147.86;100.00;48654.45;105857;1255;61813;-47
2023/11/17 11:11:58;;;;;;;3.30;3.00;;;;;;;-147.86;100.00;48633.67;105878;1255;60355;-43